Time;durP1;ratioP1;P1;durP2;ratioP2;P2;SDS_P1;SDS_P2;PMS_P1;PMS_P2;Temp;Humidity;BMP_temperature;BMP_pressure;BME280_temperature;BME280_humidity;BME280_pressure;Samples;Min_cycle;Max_cycle;Signal;HPM_P1;HPM_P2
2023/06/15 00:02:24;;;;;;;5.65;4.18;;;;;;;;;;5059971;28;20821;-65
2023/06/15 00:04:52;;;;;;;5.25;4.00;;;;;;;;;;5061734;28;20466;-65
2023/06/15 00:07:19;;;;;;;5.40;4.10;;;;;;;;;;5061015;28;20431;-65
2023/06/15 00:09:45;;;;;;;5.97;4.10;;;;;;;;;;5060140;28;20410;-65
2023/06/15 00:12:14;;;;;;;6.43;3.90;;;;;;;;;;5063887;28;20936;-65
2023/06/15 00:14:41;;;;;;;4.57;3.67;;;;;;;;;;5060369;28;20419;-65
2023/06/15 00:17:08;;;;;;;5.90;3.90;;;;;;;;;;5061683;28;20975;-65
2023/06/15 00:19:36;;;;;;;6.47;3.97;;;;;;;;;;5059728;28;20431;-65
2023/06/15 00:22:03;;;;;;;6.90;3.88;;;;;;;;;;5062228;28;20451;-65
2023/06/15 00:24:30;;;;;;;5.10;4.03;;;;;;;;;;5049869;28;20409;-65
2023/06/15 00:26:57;;;;;;;7.20;4.30;;;;;;;;;;5049911;28;20463;-65
2023/06/15 00:29:25;;;;;;;6.53;4.50;;;;;;;;;;5050539;28;20417;-65
2023/06/15 00:31:52;;;;;;;5.63;4.03;;;;;;;;;;5061838;28;20470;-65
2023/06/15 00:34:19;;;;;;;6.68;4.20;;;;;;;;;;5062469;28;20412;-65
2023/06/15 00:36:46;;;;;;;5.72;3.92;;;;;;;;;;5059189;28;20414;-65
2023/06/15 00:39:13;;;;;;;6.10;4.33;;;;;;;;;;5058830;28;20487;-65
2023/06/15 00:41:43;;;;;;;5.88;4.05;;;;;;;;;;5061941;28;20419;-65
2023/06/15 00:44:10;;;;;;;5.70;4.20;;;;;;;;;;5065707;28;20454;-65
2023/06/15 00:46:39;;;;;;;5.97;4.25;;;;;;;;;;5062284;28;20831;-65
2023/06/15 00:49:06;;;;;;;5.50;4.27;;;;;;;;;;5063068;28;20409;-65
2023/06/15 00:51:35;;;;;;;5.95;4.30;;;;;;;;;;5062067;28;20417;-65
2023/06/15 00:54:02;;;;;;;7.40;4.40;;;;;;;;;;5063773;28;20411;-65
2023/06/15 00:56:29;;;;;;;5.90;4.30;;;;;;;;;;5064339;28;20421;-65
2023/06/15 00:58:57;;;;;;;4.70;3.90;;;;;;;;;;5052772;28;20812;-65
2023/06/15 01:01:24;;;;;;;6.38;3.85;;;;;;;;;;5053322;28;20450;-65
2023/06/15 01:03:54;;;;;;;5.18;4.28;;;;;;;;;;5053214;28;20443;-65
2023/06/15 01:06:24;;;;;;;7.20;4.30;;;;;;;;;;5053007;28;20425;-65
2023/06/15 01:08:52;;;;;;;5.20;4.43;;;;;;;;;;5063053;28;20465;-65
2023/06/15 01:11:19;;;;;;;6.05;4.20;;;;;;;;;;5064380;28;20427;-66
2023/06/15 01:13:47;;;;;;;8.50;4.32;;;;;;;;;;5071364;28;20422;-65
2023/06/15 01:16:19;;;;;;;6.68;4.50;;;;;;;;;;5065294;28;20420;-65
2023/06/15 01:18:50;;;;;;;5.78;3.90;;;;;;;;;;5061355;28;20507;-65
2023/06/15 01:21:19;;;;;;;7.38;4.50;;;;;;;;;;5062623;28;20530;-65
2023/06/15 01:23:51;;;;;;;6.75;4.38;;;;;;;;;;5063862;28;20423;-65
2023/06/15 01:26:20;;;;;;;7.20;4.28;;;;;;;;;;5064943;28;20423;-65
2023/06/15 01:28:49;;;;;;;5.00;4.18;;;;;;;;;;5062038;28;20974;-65
2023/06/15 01:31:16;;;;;;;6.88;4.30;;;;;;;;;;5065877;28;20464;-65
2023/06/15 01:33:47;;;;;;;5.18;4.35;;;;;;;;;;5063064;28;20840;-65
2023/06/15 01:36:14;;;;;;;7.15;4.40;;;;;;;;;;5063558;28;20873;-65
2023/06/15 01:38:41;;;;;;;5.97;4.80;;;;;;;;;;5067038;28;20431;-65
2023/06/15 01:41:09;;;;;;;8.20;4.57;;;;;;;;;;5061726;28;20443;-65
2023/06/15 01:43:38;;;;;;;7.18;4.50;;;;;;;;;;5069744;28;20456;-65
2023/06/15 01:46:05;;;;;;;4.55;4.15;;;;;;;;;;5062749;28;20516;-65
2023/06/15 01:48:32;;;;;;;6.55;4.47;;;;;;;;;;5064066;28;20415;-65
2023/06/15 01:51:00;;;;;;;4.78;4.10;;;;;;;;;;5060715;28;20771;-65
2023/06/15 01:53:27;;;;;;;6.43;4.72;;;;;;;;;;5062342;28;20479;-65
2023/06/15 01:55:56;;;;;;;5.88;4.40;;;;;;;;;;5063279;28;20498;-65
2023/06/15 01:58:23;;;;;;;7.70;4.50;;;;;;;;;;5063539;28;20526;-65
2023/06/15 02:00:51;;;;;;;5.85;4.85;;;;;;;;;;5060816;28;20414;-65
2023/06/15 02:03:18;;;;;;;6.63;4.53;;;;;;;;;;5051830;28;20462;-65
2023/06/15 02:05:45;;;;;;;5.72;4.40;;;;;;;;;;5058139;28;20793;-65
2023/06/15 02:08:13;;;;;;;7.25;4.55;;;;;;;;;;5060489;28;20421;-65
2023/06/15 02:10:40;;;;;;;6.32;4.30;;;;;;;;;;5061781;28;20418;-65
2023/06/15 02:13:08;;;;;;;4.80;4.28;;;;;;;;;;5066391;28;20429;-65
2023/06/15 02:15:36;;;;;;;5.43;4.43;;;;;;;;;;5064645;28;20461;-65
2023/06/15 02:18:11;;;;;;;8.30;4.40;;;;;;;;;;5058958;28;20838;-65
2023/06/15 02:20:39;;;;;;;5.65;5.00;;;;;;;;;;5061799;28;20432;-65
2023/06/15 02:23:06;;;;;;;6.63;4.97;;;;;;;;;;5066436;28;20421;-65
2023/06/15 02:25:33;;;;;;;20.63;12.48;;;;;;;;;;5063290;28;20416;-65
2023/06/15 02:28:00;;;;;;;19.05;11.20;;;;;;;;;;5062432;28;20469;-65
2023/06/15 02:30:27;;;;;;;14.40;8.43;;;;;;;;;;5064289;28;20915;-65
2023/06/15 02:32:55;;;;;;;12.13;7.90;;;;;;;;;;5065157;28;20964;-65
2023/06/15 02:35:23;;;;;;;12.68;7.43;;;;;;;;;;5062745;28;20423;-65
2023/06/15 02:37:50;;;;;;;8.27;6.20;;;;;;;;;;5062984;28;20423;-65
2023/06/15 02:40:17;;;;;;;8.30;5.68;;;;;;;;;;5059664;28;20424;-65
2023/06/15 02:42:44;;;;;;;8.57;5.63;;;;;;;;;;5064068;28;20465;-66
2023/06/15 02:45:12;;;;;;;8.20;5.25;;;;;;;;;;5062936;28;20424;-65
2023/06/15 02:47:39;;;;;;;7.63;5.35;;;;;;;;;;5061825;28;20440;-65
2023/06/15 02:50:07;;;;;;;7.05;5.53;;;;;;;;;;5068175;28;20886;-65
2023/06/15 02:52:36;;;;;;;8.63;5.72;;;;;;;;;;5064018;28;20419;-65
2023/06/15 02:55:04;;;;;;;8.20;5.90;;;;;;;;;;5066208;28;20420;-65
2023/06/15 02:57:31;;;;;;;6.80;5.60;;;;;;;;;;5062134;28;20873;-66
2023/06/15 02:59:58;;;;;;;8.60;5.80;;;;;;;;;;5059552;28;20482;-65
2023/06/15 03:02:26;;;;;;;9.50;5.70;;;;;;;;;;5063836;28;20458;-65
2023/06/15 03:04:53;;;;;;;7.78;5.75;;;;;;;;;;5062592;28;20416;-65
2023/06/15 03:07:22;;;;;;;8.93;5.97;;;;;;;;;;5061352;28;20451;-66
2023/06/15 03:09:51;;;;;;;7.53;5.60;;;;;;;;;;5059207;28;20851;-65
2023/06/15 03:12:19;;;;;;;8.13;5.35;;;;;;;;;;5061646;28;20492;-65
2023/06/15 03:14:50;;;;;;;8.85;5.47;;;;;;;;;;5058516;28;20461;-65
2023/06/15 03:17:17;;;;;;;7.80;5.10;;;;;;;;;;5059549;28;20435;-65
2023/06/15 03:19:46;;;;;;;7.90;5.13;;;;;;;;;;5068497;28;20464;-66
2023/06/15 03:22:13;;;;;;;6.82;5.40;;;;;;;;;;5061562;28;20507;-65
2023/06/15 03:24:41;;;;;;;8.93;5.47;;;;;;;;;;5061502;28;20508;-65
2023/06/15 03:27:11;;;;;;;7.43;5.50;;;;;;;;;;5059308;28;20932;-65
2023/06/15 03:29:39;;;;;;;7.60;5.60;;;;;;;;;;5059141;28;20422;-65
2023/06/15 03:32:06;;;;;;;7.13;5.75;;;;;;;;;;5058235;28;20411;-65
2023/06/15 03:34:33;;;;;;;8.35;5.90;;;;;;;;;;5064454;28;20419;-65
2023/06/15 03:37:00;;;;;;;8.85;5.68;;;;;;;;;;5061949;28;20927;-65
2023/06/15 03:39:27;;;;;;;7.30;5.68;;;;;;;;;;5059456;28;20436;-65
2023/06/15 03:41:55;;;;;;;9.18;6.85;;;;;;;;;;5059356;28;20409;-65
2023/06/15 03:44:23;;;;;;;8.95;6.20;;;;;;;;;;5061256;28;20909;-65
2023/06/15 03:46:50;;;;;;;8.32;6.15;;;;;;;;;;5061262;28;20413;-66
2023/06/15 03:49:17;;;;;;;10.10;6.45;;;;;;;;;;5066224;28;21108;-65
2023/06/15 03:51:44;;;;;;;10.15;6.35;;;;;;;;;;5060150;28;20407;-65
2023/06/15 03:54:11;;;;;;;8.30;6.70;;;;;;;;;;5061294;28;20411;-65
2023/06/15 03:56:38;;;;;;;8.20;6.32;;;;;;;;;;5061767;28;20420;-65
2023/06/15 03:59:05;;;;;;;9.98;6.47;;;;;;;;;;5060686;28;20439;-65
2023/06/15 04:01:33;;;;;;;9.00;6.30;;;;;;;;;;5058955;28;20820;-65
2023/06/15 04:04:00;;;;;;;10.90;6.93;;;;;;;;;;5061075;28;20423;-65
2023/06/15 04:06:27;;;;;;;13.93;6.75;;;;;;;;;;5062556;28;20477;-65
2023/06/15 04:08:54;;;;;;;9.90;6.15;;;;;;;;;;5059817;28;20416;-65
2023/06/15 04:11:21;;;;;;;9.00;6.60;;;;;;;;;;5061204;28;20415;-65
2023/06/15 04:13:48;;;;;;;8.77;6.70;;;;;;;;;;5058763;28;20467;-65
2023/06/15 04:16:15;;;;;;;10.02;6.32;;;;;;;;;;5062392;28;20465;-65
2023/06/15 04:18:43;;;;;;;10.73;5.80;;;;;;;;;;5063701;28;20753;-62
2023/06/15 04:21:10;;;;;;;8.18;5.70;;;;;;;;;;5062546;28;20466;-60
2023/06/15 04:23:37;;;;;;;10.02;5.70;;;;;;;;;;5068449;28;20831;-63
2023/06/15 04:26:06;;;;;;;8.45;6.00;;;;;;;;;;5068571;28;20421;-62
2023/06/15 04:28:35;;;;;;;8.07;5.20;;;;;;;;;;5068333;28;20455;-63
2023/06/15 04:31:09;;;;;;;9.32;5.28;;;;;;;;;;5062574;28;20508;-63
2023/06/15 04:33:41;;;;;;;9.82;4.95;;;;;;;;;;5062064;28;20435;-61
2023/06/15 04:36:12;;;;;;;8.27;5.10;;;;;;;;;;5063841;28;20415;-62
2023/06/15 04:38:40;;;;;;;8.07;5.25;;;;;;;;;;5066992;28;20818;-63
2023/06/15 04:41:08;;;;;;;10.90;5.10;;;;;;;;;;5063281;28;20425;-62
2023/06/15 04:43:35;;;;;;;7.32;5.30;;;;;;;;;;5062157;28;20436;-63
2023/06/15 04:46:03;;;;;;;7.93;5.03;;;;;;;;;;5062432;28;20506;-63
2023/06/15 04:48:32;;;;;;;5.85;4.85;;;;;;;;;;5064724;28;20411;-63
2023/06/15 04:50:59;;;;;;;7.63;5.05;;;;;;;;;;5065285;28;20438;-62
2023/06/15 04:53:27;;;;;;;8.13;4.97;;;;;;;;;;5061506;28;21011;-62
2023/06/15 04:55:54;;;;;;;8.80;5.30;;;;;;;;;;5065479;28;20423;-63
2023/06/15 04:58:21;;;;;;;6.38;4.93;;;;;;;;;;5064433;28;20779;-63
2023/06/15 05:00:48;;;;;;;10.93;5.45;;;;;;;;;;5065855;28;20475;-63
2023/06/15 05:03:15;;;;;;;9.32;5.10;;;;;;;;;;5065390;28;20478;-62
2023/06/15 05:05:42;;;;;;;8.13;5.55;;;;;;;;;;5062738;28;20773;-63
2023/06/15 05:08:09;;;;;;;11.82;5.53;;;;;;;;;;5064230;28;20481;-62
2023/06/15 05:10:38;;;;;;;10.03;6.40;;;;;;;;;;5062898;28;21270;-61
2023/06/15 05:13:05;;;;;;;7.30;5.43;;;;;;;;;;5061519;28;20425;-61
2023/06/15 05:15:32;;;;;;;8.00;5.20;;;;;;;;;;5064759;28;20514;-62
2023/06/15 05:17:59;;;;;;;7.60;5.30;;;;;;;;;;5060863;28;20421;-64
2023/06/15 05:20:26;;;;;;;11.00;5.15;;;;;;;;;;5065387;28;20898;-65
2023/06/15 05:22:53;;;;;;;7.23;4.90;;;;;;;;;;5066364;28;20413;-64
2023/06/15 05:25:20;;;;;;;12.43;5.50;;;;;;;;;;5066935;28;21103;-65
2023/06/15 05:27:48;;;;;;;11.73;5.35;;;;;;;;;;5065303;28;20485;-64
2023/06/15 05:30:15;;;;;;;11.18;5.18;;;;;;;;;;5069783;28;20824;-64
2023/06/15 05:32:42;;;;;;;8.27;5.10;;;;;;;;;;5067994;28;20506;-64
2023/06/15 05:35:10;;;;;;;10.40;5.00;;;;;;;;;;5063427;28;20417;-64
2023/06/15 05:37:37;;;;;;;7.30;4.60;;;;;;;;;;5064440;28;20536;-65
2023/06/15 05:40:05;;;;;;;6.78;5.07;;;;;;;;;;5070804;28;20432;-66
2023/06/15 05:42:32;;;;;;;5.40;4.45;;;;;;;;;;5063491;28;20780;-65
2023/06/15 05:45:01;;;;;;;7.78;4.72;;;;;;;;;;5062699;28;20471;-65
2023/06/15 05:47:28;;;;;;;7.07;4.55;;;;;;;;;;5061505;28;20491;-63
2023/06/15 05:49:55;;;;;;;7.18;4.38;;;;;;;;;;5068794;28;20412;-65
2023/06/15 05:52:22;;;;;;;6.90;4.47;;;;;;;;;;5055702;28;20420;-65
2023/06/15 05:54:49;;;;;;;5.10;4.53;;;;;;;;;;5060641;28;20414;-65
2023/06/15 05:57:16;;;;;;;7.53;4.63;;;;;;;;;;5064510;28;21011;-65
2023/06/15 05:59:46;;;;;;;6.97;4.65;;;;;;;;;;5067039;28;20927;-66
2023/06/15 06:02:15;;;;;;;5.43;4.88;;;;;;;;;;5061284;28;20840;-64
2023/06/15 06:04:42;;;;;;;7.80;4.45;;;;;;;;;;5062765;28;20431;-65
2023/06/15 06:07:10;;;;;;;7.78;4.57;;;;;;;;;;5067332;28;20428;-63
2023/06/15 06:09:37;;;;;;;5.25;4.15;;;;;;;;;;5064353;28;20454;-62
2023/06/15 06:12:05;;;;;;;5.50;4.30;;;;;;;;;;5062878;28;20503;-64
2023/06/15 06:14:32;;;;;;;6.05;4.20;;;;;;;;;;5067874;28;20991;-65
2023/06/15 06:16:59;;;;;;;7.32;4.75;;;;;;;;;;5061816;28;20417;-65
2023/06/15 06:19:27;;;;;;;5.28;4.22;;;;;;;;;;5068391;28;20437;-65
2023/06/15 06:21:54;;;;;;;4.68;4.07;;;;;;;;;;5060068;28;20429;-65
2023/06/15 06:24:21;;;;;;;6.45;4.10;;;;;;;;;;5065830;28;20425;-63
2023/06/15 06:26:48;;;;;;;5.80;4.38;;;;;;;;;;5060402;28;20417;-64
2023/06/15 06:29:15;;;;;;;26.80;17.33;;;;;;;;;;5063061;28;20485;-63
2023/06/15 06:31:43;;;;;;;5.38;3.88;;;;;;;;;;5062992;28;20465;-63
2023/06/15 06:34:10;;;;;;;6.47;3.87;;;;;;;;;;5067920;28;20492;-62
2023/06/15 06:36:38;;;;;;;6.85;4.28;;;;;;;;;;5067722;28;20425;-64
2023/06/15 06:39:06;;;;;;;7.13;3.93;;;;;;;;;;5066218;28;20417;-64
2023/06/15 06:41:33;;;;;;;8.10;3.95;;;;;;;;;;5061456;28;20853;-63
2023/06/15 06:44:00;;;;;;;7.13;3.90;;;;;;;;;;5060952;28;20413;-62
2023/06/15 06:46:27;;;;;;;6.00;3.93;;;;;;;;;;5069890;28;20958;-65
2023/06/15 06:48:54;;;;;;;5.78;3.67;;;;;;;;;;5067874;28;20412;-62
2023/06/15 06:51:21;;;;;;;6.38;4.10;;;;;;;;;;5062268;28;20485;-63
2023/06/15 06:53:49;;;;;;;6.80;3.90;;;;;;;;;;5059927;28;20878;-62
2023/06/15 06:56:16;;;;;;;8.65;3.90;;;;;;;;;;5061127;28;20532;-63
2023/06/15 06:58:43;;;;;;;6.57;3.87;;;;;;;;;;5068167;28;20423;-63
2023/06/15 07:01:10;;;;;;;5.70;3.65;;;;;;;;;;5065776;28;20473;-63
2023/06/15 07:03:39;;;;;;;5.22;3.50;;;;;;;;;;5062664;28;20419;-65
2023/06/15 07:06:06;;;;;;;5.30;3.53;;;;;;;;;;5064204;28;20792;-64
2023/06/15 07:08:33;;;;;;;7.70;4.10;;;;;;;;;;5058984;28;20983;-64
2023/06/15 07:11:01;;;;;;;7.78;3.88;;;;;;;;;;5061531;28;20476;-64
2023/06/15 07:13:28;;;;;;;7.88;3.85;;;;;;;;;;5060204;28;20474;-65
2023/06/15 07:15:57;;;;;;;11.57;4.23;;;;;;;;;;5063858;28;21028;-63
2023/06/15 07:18:25;;;;;;;10.27;4.30;;;;;;;;;;5063828;28;20428;-63
2023/06/15 07:20:54;;;;;;;7.30;4.28;;;;;;;;;;5058779;28;20956;-63
2023/06/15 07:23:21;;;;;;;12.40;3.87;;;;;;;;;;5059927;28;20983;-65
2023/06/15 07:25:48;;;;;;;10.45;3.72;;;;;;;;;;5061573;28;20461;-64
2023/06/15 07:28:17;;;;;;;6.53;4.18;;;;;;;;;;5061243;28;20420;-64
2023/06/15 07:30:44;;;;;;;19.08;4.93;;;;;;;;;;5063301;28;20489;-63
2023/06/15 07:33:11;;;;;;;9.77;3.60;;;;;;;;;;5063362;28;20417;-63
2023/06/15 07:35:39;;;;;;;7.57;3.77;;;;;;;;;;5062629;28;20820;-63
2023/06/15 07:38:06;;;;;;;8.10;3.90;;;;;;;;;;5062977;28;20511;-63
2023/06/15 07:40:33;;;;;;;9.75;3.88;;;;;;;;;;5067505;28;20427;-61
2023/06/15 07:43:00;;;;;;;8.63;3.80;;;;;;;;;;5060813;28;20483;-62
2023/06/15 07:45:28;;;;;;;40.33;8.93;;;;;;;;;;5060879;28;20415;-62
2023/06/15 07:47:55;;;;;;;7.50;3.60;;;;;;;;;;5062617;28;20485;-61
2023/06/15 07:50:22;;;;;;;15.57;4.88;;;;;;;;;;5064720;28;20468;-62
2023/06/15 07:52:50;;;;;;;5.05;3.40;;;;;;;;;;5059600;28;20416;-63
2023/06/15 07:55:18;;;;;;;9.30;3.95;;;;;;;;;;5064189;28;20420;-63
2023/06/15 07:57:45;;;;;;;7.30;3.53;;;;;;;;;;5064464;28;20823;-60
2023/06/15 08:00:12;;;;;;;7.70;3.63;;;;;;;;;;5068162;28;20475;-63
2023/06/15 08:02:41;;;;;;;7.37;3.70;;;;;;;;;;5063050;28;20417;-65
2023/06/15 08:05:08;;;;;;;11.32;4.22;;;;;;;;;;5066252;28;20909;-64
2023/06/15 08:07:36;;;;;;;12.48;4.10;;;;;;;;;;5063794;28;20424;-65
2023/06/15 08:10:03;;;;;;;11.67;4.20;;;;;;;;;;5066196;28;20421;-67
2023/06/15 08:12:30;;;;;;;11.25;3.83;;;;;;;;;;5065456;28;20411;-65
2023/06/15 08:14:57;;;;;;;9.25;3.92;;;;;;;;;;5067320;28;20808;-63
2023/06/15 08:17:25;;;;;;;7.20;3.67;;;;;;;;;;5062285;28;20433;-62
2023/06/15 08:19:53;;;;;;;9.00;3.90;;;;;;;;;;5068882;28;20438;-71
2023/06/15 08:22:20;;;;;;;13.18;4.07;;;;;;;;;;5066260;28;20425;-67
2023/06/15 08:24:47;;;;;;;7.50;3.87;;;;;;;;;;5064797;28;20415;-67
2023/06/15 08:27:14;;;;;;;10.80;4.32;;;;;;;;;;5063270;28;20893;-69
2023/06/15 08:29:44;;;;;;;6.57;3.95;;;;;;;;;;5062368;28;20470;-69
2023/06/15 08:32:13;;;;;;;7.40;3.90;;;;;;;;;;5066182;28;20419;-70
2023/06/15 08:34:40;;;;;;;8.63;4.05;;;;;;;;;;5064676;28;20434;-70
2023/06/15 08:37:11;;;;;;;6.43;3.88;;;;;;;;;;5063123;28;20497;-68
2023/06/15 08:39:38;;;;;;;8.52;4.25;;;;;;;;;;5070468;28;20511;-70
2023/06/15 08:42:05;;;;;;;8.70;4.10;;;;;;;;;;5066659;28;20429;-67
2023/06/15 08:44:32;;;;;;;57.85;20.20;;;;;;;;;;5064290;28;20933;-62
2023/06/15 08:47:00;;;;;;;31.65;13.30;;;;;;;;;;5058584;28;20499;-64
2023/06/15 08:49:27;;;;;;;15.18;5.80;;;;;;;;;;5070684;28;20935;-65
2023/06/15 08:51:55;;;;;;;9.77;4.30;;;;;;;;;;5064663;28;20416;-66
2023/06/15 08:54:27;;;;;;;10.52;4.38;;;;;;;;;;5068339;28;20465;-66
2023/06/15 08:56:54;;;;;;;12.88;4.00;;;;;;;;;;5068878;28;20469;-65
2023/06/15 08:59:24;;;;;;;9.93;4.55;;;;;;;;;;5070591;28;20407;-68
2023/06/15 09:01:53;;;;;;;9.73;4.35;;;;;;;;;;5064057;28;20458;-69
2023/06/15 09:04:20;;;;;;;7.43;4.03;;;;;;;;;;5068410;28;20466;-69
2023/06/15 09:06:47;;;;;;;8.55;3.97;;;;;;;;;;5064866;28;21107;-67
2023/06/15 09:09:14;;;;;;;513.33;49.45;;;;;;;;;;5061297;28;20883;-63
2023/06/15 09:11:43;;;;;;;7.73;3.97;;;;;;;;;;5062585;28;20417;-63
2023/06/15 09:14:11;;;;;;;7.32;3.90;;;;;;;;;;5064602;28;20477;-61
2023/06/15 09:16:38;;;;;;;6.63;3.47;;;;;;;;;;5063194;28;20419;-64
2023/06/15 09:19:11;;;;;;;123.45;10.85;;;;;;;;;;5065366;28;20893;-63
2023/06/15 09:21:40;;;;;;;10.15;3.85;;;;;;;;;;5062654;28;20427;-63
2023/06/15 09:24:08;;;;;;;27.52;5.50;;;;;;;;;;5065411;28;20812;-63
2023/06/15 09:26:39;;;;;;;7.28;3.53;;;;;;;;;;5062395;28;20421;-63
2023/06/15 09:29:09;;;;;;;7.17;3.70;;;;;;;;;;5061167;28;20497;-64
2023/06/15 09:31:37;;;;;;;10.77;4.05;;;;;;;;;;5062243;28;20415;-65
2023/06/15 09:34:04;;;;;;;5.70;3.92;;;;;;;;;;5067295;28;20420;-64
2023/06/15 09:36:35;;;;;;;8.40;3.95;;;;;;;;;;5052303;28;20448;-66
2023/06/15 09:39:04;;;;;;;4.93;3.45;;;;;;;;;;5052552;28;21052;-65
2023/06/15 09:41:31;;;;;;;5.90;3.45;;;;;;;;;;5052077;28;20433;-65
2023/06/15 09:44:01;;;;;;;5.80;3.58;;;;;;;;;;5056940;28;20415;-62
2023/06/15 09:46:30;;;;;;;5.95;3.42;;;;;;;;;;5067458;28;20415;-63
2023/06/15 09:48:57;;;;;;;5.87;3.70;;;;;;;;;;5064979;28;20417;-69
2023/06/15 09:51:28;;;;;;;6.90;3.80;;;;;;;;;;5064788;28;20439;-69
2023/06/15 09:53:57;;;;;;;6.03;3.55;;;;;;;;;;5060485;28;20423;-68
2023/06/15 09:56:24;;;;;;;6.15;3.55;;;;;;;;;;5060439;28;20897;-68
2023/06/15 09:58:51;;;;;;;8.65;3.80;;;;;;;;;;5065253;28;20425;-69
2023/06/15 10:01:19;;;;;;;6.57;3.27;;;;;;;;;;5063103;28;20437;-69
2023/06/15 10:03:53;;;;;;;6.55;3.53;;;;;;;;;;5061537;28;20428;-68
2023/06/15 10:06:21;;;;;;;6.85;4.20;;;;;;;;;;5066190;28;20412;-66
2023/06/15 10:08:51;;;;;;;9.18;3.40;;;;;;;;;;5063321;28;20474;-68
2023/06/15 10:11:18;;;;;;;4.72;3.42;;;;;;;;;;5062638;28;20514;-69
2023/06/15 10:13:51;;;;;;;7.28;3.67;;;;;;;;;;5061594;28;20413;-67
2023/06/15 10:16:19;;;;;;;6.28;3.40;;;;;;;;;;5064110;28;20481;-67
2023/06/15 10:18:47;;;;;;;7.95;4.10;;;;;;;;;;5061064;28;20421;-70
2023/06/15 10:21:18;;;;;;;7.43;3.40;;;;;;;;;;5065734;28;20427;-69
2023/06/15 10:23:48;;;;;;;7.45;4.30;;;;;;;;;;5058838;28;20464;-70
2023/06/15 10:26:18;;;;;;;6.55;3.40;;;;;;;;;;5062598;28;20412;-70
2023/06/15 10:28:48;;;;;;;6.07;3.30;;;;;;;;;;5062203;28;20411;-70
2023/06/15 10:31:21;;;;;;;7.03;3.50;;;;;;;;;;5058839;28;21079;-71
2023/06/15 10:33:54;;;;;;;5.65;3.15;;;;;;;;;;5062004;28;20421;-73
2023/06/15 10:36:25;;;;;;;4.50;3.33;;;;;;;;;;5061001;28;20467;-69
2023/06/15 10:38:56;;;;;;;6.40;3.10;;;;;;;;;;5063503;28;20412;-67
2023/06/15 10:41:23;;;;;;;5.63;3.15;;;;;;;;;;5064680;28;20427;-68
2023/06/15 10:44:00;;;;;;;7.17;3.47;;;;;;;;;;5063205;28;20423;-68
2023/06/15 10:46:28;;;;;;;23.57;5.23;;;;;;;;;;5065633;28;20421;-68
2023/06/15 10:48:55;;;;;;;9.82;3.45;;;;;;;;;;5064416;28;20426;-68
2023/06/15 10:51:25;;;;;;;7.07;3.25;;;;;;;;;;5064682;28;20413;-70
2023/06/15 10:53:52;;;;;;;4.18;2.67;;;;;;;;;;5059512;28;20417;-67
2023/06/15 10:56:21;;;;;;;7.38;3.17;;;;;;;;;;5060940;28;20481;-68
2023/06/15 10:58:55;;;;;;;5.57;2.85;;;;;;;;;;5065812;28;20424;-68
2023/06/15 11:01:22;;;;;;;6.47;3.10;;;;;;;;;;5066378;28;20434;-70
2023/06/15 11:03:49;;;;;;;8.98;3.60;;;;;;;;;;5069222;28;20412;-67
2023/06/15 11:06:17;;;;;;;6.97;3.00;;;;;;;;;;5062182;28;20409;-68
2023/06/15 11:08:47;;;;;;;4.63;2.75;;;;;;;;;;5059527;28;20420;-65
2023/06/15 11:11:15;;;;;;;6.22;3.20;;;;;;;;;;5060957;28;20451;-69
2023/06/15 11:14:02;;;;;;;3.63;2.90;;;;;;;;;;5064846;28;20416;-67
2023/06/15 11:16:33;;;;;;;5.00;2.95;;;;;;;;;;5059502;28;20896;-61
2023/06/15 11:19:01;;;;;;;4.63;3.03;;;;;;;;;;5063045;28;21165;-65
2023/06/15 11:21:29;;;;;;;5.60;3.35;;;;;;;;;;5050499;28;20479;-64
2023/06/15 11:23:58;;;;;;;8.85;3.20;;;;;;;;;;5050004;28;20448;-65
2023/06/15 11:26:29;;;;;;;4.80;3.00;;;;;;;;;;5050479;28;20417;-67
2023/06/15 11:28:59;;;;;;;5.30;3.13;;;;;;;;;;5050091;28;20412;-67
2023/06/15 11:31:27;;;;;;;4.40;2.65;;;;;;;;;;5061359;28;20898;-68
2023/06/15 11:33:55;;;;;;;4.53;3.00;;;;;;;;;;5060304;28;20883;-69
2023/06/15 11:36:22;;;;;;;6.73;2.90;;;;;;;;;;5061348;28;20490;-68
2023/06/15 11:38:49;;;;;;;6.60;3.08;;;;;;;;;;5066806;28;20411;-68
2023/06/15 11:41:17;;;;;;;6.43;2.90;;;;;;;;;;5062370;28;20788;-71
2023/06/15 11:43:46;;;;;;;4.65;3.08;;;;;;;;;;5059169;28;20417;-67
2023/06/15 11:46:13;;;;;;;6.20;3.13;;;;;;;;;;5061502;28;20828;-71
2023/06/15 11:48:40;;;;;;;5.07;2.90;;;;;;;;;;5064298;28;20838;-68
2023/06/15 11:51:08;;;;;;;3.83;2.95;;;;;;;;;;5063601;28;20416;-67
2023/06/15 11:53:37;;;;;;;5.78;3.10;;;;;;;;;;5061425;28;20403;-67
2023/06/15 11:56:04;;;;;;;2.90;2.60;;;;;;;;;;5059673;28;20417;-69
2023/06/15 11:58:34;;;;;;;10.80;3.08;;;;;;;;;;5064021;28;20416;-69
2023/06/15 12:01:01;;;;;;;4.95;3.05;;;;;;;;;;5062201;28;20512;-69
2023/06/15 12:03:30;;;;;;;6.45;3.20;;;;;;;;;;5060381;28;20425;-69
2023/06/15 12:05:58;;;;;;;3.30;2.70;;;;;;;;;;5063553;28;20427;-69
2023/06/15 12:08:26;;;;;;;4.38;2.58;;;;;;;;;;5064845;28;20526;-71
2023/06/15 12:10:55;;;;;;;3.92;2.72;;;;;;;;;;5065278;28;20782;-71
2023/06/15 12:13:23;;;;;;;4.82;2.95;;;;;;;;;;5064834;28;20430;-70
2023/06/15 12:15:51;;;;;;;3.87;3.07;;;;;;;;;;5061438;28;20445;-69
2023/06/15 12:18:20;;;;;;;5.45;3.13;;;;;;;;;;5059824;28;20434;-67
2023/06/15 12:20:47;;;;;;;3.95;2.95;;;;;;;;;;5062016;28;20444;-69
2023/06/15 12:23:26;;;;;;;5.30;2.95;;;;;;;;;;5060518;28;20430;-62
2023/06/15 12:25:55;;;;;;;4.93;2.90;;;;;;;;;;5060930;28;20495;-63
2023/06/15 12:28:22;;;;;;;4.18;2.70;;;;;;;;;;5059902;28;20462;-63
2023/06/15 12:30:50;;;;;;;6.90;2.90;;;;;;;;;;5060868;28;20415;-64
2023/06/15 12:33:30;;;;;;;5.47;2.78;;;;;;;;;;5059106;28;20448;-65
2023/06/15 12:35:57;;;;;;;7.03;3.00;;;;;;;;;;5050027;28;20503;-64
2023/06/15 12:38:25;;;;;;;4.88;2.90;;;;;;;;;;5057889;28;20399;-65
2023/06/15 12:40:53;;;;;;;4.45;3.00;;;;;;;;;;5060620;28;20419;-65
2023/06/15 12:43:20;;;;;;;6.15;3.10;;;;;;;;;;5061575;28;20771;-64
2023/06/15 12:45:47;;;;;;;7.53;2.90;;;;;;;;;;5062594;28;20470;-67
2023/06/15 12:48:14;;;;;;;4.07;2.88;;;;;;;;;;5066080;28;20412;-65
2023/06/15 12:50:43;;;;;;;3.50;3.00;;;;;;;;;;5070186;28;20896;-66
2023/06/15 12:53:10;;;;;;;4.67;3.00;;;;;;;;;;5064727;28;20961;-65
2023/06/15 12:55:37;;;;;;;5.40;2.95;;;;;;;;;;5062207;28;20424;-65
2023/06/15 12:58:04;;;;;;;4.80;2.85;;;;;;;;;;5064386;28;20846;-65
2023/06/15 13:00:31;;;;;;;5.00;2.60;;;;;;;;;;5065457;28;20415;-64
2023/06/15 13:03:00;;;;;;;4.78;2.65;;;;;;;;;;5065625;28;20487;-64
2023/06/15 13:05:27;;;;;;;4.15;2.83;;;;;;;;;;5070154;28;20424;-65
2023/06/15 13:07:55;;;;;;;5.20;2.80;;;;;;;;;;5065708;28;20475;-64
2023/06/15 13:10:22;;;;;;;5.28;2.78;;;;;;;;;;5067864;28;20490;-64
2023/06/15 13:12:49;;;;;;;6.53;3.05;;;;;;;;;;5064192;28;20413;-65
2023/06/15 13:15:17;;;;;;;4.50;2.55;;;;;;;;;;5069262;28;20508;-66
2023/06/15 13:17:44;;;;;;;7.10;2.70;;;;;;;;;;5066706;28;20470;-66
2023/06/15 13:20:11;;;;;;;4.47;2.70;;;;;;;;;;5067027;28;20417;-66
2023/06/15 13:22:38;;;;;;;4.55;2.45;;;;;;;;;;5061754;28;20455;-66
2023/06/15 13:25:07;;;;;;;3.72;2.60;;;;;;;;;;5061542;28;20429;-66
2023/06/15 13:27:37;;;;;;;2.95;2.30;;;;;;;;;;5064320;28;20516;-66
2023/06/15 13:30:05;;;;;;;4.07;2.70;;;;;;;;;;5068543;28;20430;-66
2023/06/15 13:32:32;;;;;;;5.25;2.63;;;;;;;;;;5066100;28;20461;-66
2023/06/15 13:34:59;;;;;;;7.10;2.72;;;;;;;;;;5062943;28;20467;-66
2023/06/15 13:37:26;;;;;;;3.83;2.55;;;;;;;;;;5063593;28;20846;-66
2023/06/15 13:39:53;;;;;;;3.13;2.38;;;;;;;;;;5065613;28;20444;-66
2023/06/15 13:42:22;;;;;;;4.40;2.63;;;;;;;;;;5065289;28;20912;-65
2023/06/15 13:44:49;;;;;;;4.38;3.00;;;;;;;;;;5067320;28;20411;-66
2023/06/15 13:47:18;;;;;;;4.22;2.42;;;;;;;;;;5062143;28;20448;-65
2023/06/15 13:49:45;;;;;;;3.42;2.50;;;;;;;;;;5064809;28;20438;-66
2023/06/15 13:52:12;;;;;;;6.38;2.63;;;;;;;;;;5059799;28;20416;-66
2023/06/15 13:54:39;;;;;;;6.22;2.78;;;;;;;;;;5063098;28;20411;-65
2023/06/15 13:57:07;;;;;;;3.40;2.63;;;;;;;;;;5063147;28;20424;-65
2023/06/15 13:59:35;;;;;;;3.00;2.42;;;;;;;;;;5068149;28;20421;-65
2023/06/15 14:02:03;;;;;;;3.97;2.55;;;;;;;;;;5061431;28;20413;-65
2023/06/15 14:04:31;;;;;;;6.10;2.67;;;;;;;;;;5059267;28;20408;-65
2023/06/15 14:06:59;;;;;;;3.35;2.78;;;;;;;;;;5063503;28;20413;-65
2023/06/15 14:09:26;;;;;;;4.38;2.78;;;;;;;;;;5068554;28;20420;-65
2023/06/15 14:11:57;;;;;;;4.00;2.80;;;;;;;;;;5069627;28;20461;-65
2023/06/15 14:14:24;;;;;;;6.20;3.00;;;;;;;;;;5058629;28;20432;-66
2023/06/15 14:16:53;;;;;;;5.05;2.67;;;;;;;;;;5067972;28;20412;-66
2023/06/15 14:19:21;;;;;;;5.03;2.90;;;;;;;;;;5070564;28;20420;-66
2023/06/15 14:21:48;;;;;;;4.87;2.83;;;;;;;;;;5069200;28;20417;-65
2023/06/15 14:24:15;;;;;;;4.70;3.00;;;;;;;;;;5064961;28;21026;-66
2023/06/15 14:26:42;;;;;;;6.03;3.08;;;;;;;;;;5061071;28;20412;-65
2023/06/15 14:29:12;;;;;;;3.95;2.90;;;;;;;;;;5064110;28;20417;-66
2023/06/15 14:31:41;;;;;;;4.00;3.00;;;;;;;;;;5060703;28;20456;-66
2023/06/15 14:34:10;;;;;;;3.67;2.78;;;;;;;;;;5056502;28;20780;-67
2023/06/15 14:36:36;;;;;;;6.05;3.20;;;;;;;;;;5067418;28;20423;-67
2023/06/15 14:39:03;;;;;;;4.25;3.00;;;;;;;;;;5066663;28;21112;-63
2023/06/15 14:41:30;;;;;;;3.78;3.08;;;;;;;;;;5066386;28;20411;-67
2023/06/15 14:43:57;;;;;;;5.67;2.90;;;;;;;;;;5061210;28;20428;-66
2023/06/15 14:46:24;;;;;;;4.03;2.70;;;;;;;;;;5061982;28;20803;-67